Colville, Washington
Current Conditions -  °F | °C
As of 3:53 PM on Sunday 23 Nov 2014 (Local Time) from KDEW Reporting Station
Overcast Overcast  
Wind Chill: 36°   Ceiling: 2200
Heat Index: 39°   Visibility: 10mi
Dew Point: 36°   Wind: 5mph
Humidity: 89%   Direction: 240°WSW
Pressure: 29.97"   Gusts: NA
Location:  48.55°N, 117.91°W
Report Text: KDEW 232353Z AUTO 24004KT 10SM OVC022 04/02 A2997 RMK AO2 SLP171 60008 T00390022 10044 20011 55012
Loading
Personal Weather Stations






























Interactive Weather Map New forecast layout! Learn more

10-Day Weather Forecast

Advertisements
Track Severe Weather on mobile